sensor_id;sensor_type;location;lat;lon;timestamp;temperature;humidity
67572;SHT31;54397;47.506;19.158;2022-07-26T00:00:42;24.20;47.16
67572;SHT31;54397;47.506;19.158;2022-07-26T00:04:06;24.21;46.23
67572;SHT31;54397;47.506;19.158;2022-07-26T00:07:28;24.11;45.68
67572;SHT31;54397;47.506;19.158;2022-07-26T00:10:59;24.01;46.17
67572;SHT31;54397;47.506;19.158;2022-07-26T00:14:30;23.96;47.01
67572;SHT31;54397;47.506;19.158;2022-07-26T00:17:51;23.84;47.21
67572;SHT31;54397;47.506;19.158;2022-07-26T00:21:16;23.63;47.82
67572;SHT31;54397;47.506;19.158;2022-07-26T00:24:37;23.45;48.13
67572;SHT31;54397;47.506;19.158;2022-07-26T00:28:02;23.29;48.59
67572;SHT31;54397;47.506;19.158;2022-07-26T00:31:27;23.32;48.55
67572;SHT31;54397;47.506;19.158;2022-07-26T00:34:52;23.29;48.37
67572;SHT31;54397;47.506;19.158;2022-07-26T00:38:16;23.44;47.88
67572;SHT31;54397;47.506;19.158;2022-07-26T00:41:38;23.39;47.29
67572;SHT31;54397;47.506;19.158;2022-07-26T00:45:03;23.22;47.41
67572;SHT31;54397;47.506;19.158;2022-07-26T00:48:28;23.27;48.15
67572;SHT31;54397;47.506;19.158;2022-07-26T00:51:50;23.29;47.60
67572;SHT31;54397;47.506;19.158;2022-07-26T00:55:15;22.87;48.04
67572;SHT31;54397;47.506;19.158;2022-07-26T00:58:36;22.90;48.12
67572;SHT31;54397;47.506;19.158;2022-07-26T01:01:58;22.67;48.37
67572;SHT31;54397;47.506;19.158;2022-07-26T01:05:21;22.59;48.25
67572;SHT31;54397;47.506;19.158;2022-07-26T01:08:43;22.26;48.26
67572;SHT31;54397;47.506;19.158;2022-07-26T01:12:05;22.36;48.96
67572;SHT31;54397;47.506;19.158;2022-07-26T01:15:29;22.53;47.56
67572;SHT31;54397;47.506;19.158;2022-07-26T01:18:57;22.46;47.15
67572;SHT31;54397;47.506;19.158;2022-07-26T01:22:22;22.61;47.69
67572;SHT31;54397;47.506;19.158;2022-07-26T01:25:44;22.66;47.52
67572;SHT31;54397;47.506;19.158;2022-07-26T01:29:09;22.71;46.97
67572;SHT31;54397;47.506;19.158;2022-07-26T01:32:34;22.81;46.86
67572;SHT31;54397;47.506;19.158;2022-07-26T01:35:59;22.87;47.15
67572;SHT31;54397;47.506;19.158;2022-07-26T01:39:21;22.90;47.91
67572;SHT31;54397;47.506;19.158;2022-07-26T01:42:43;22.73;47.80
67572;SHT31;54397;47.506;19.158;2022-07-26T01:46:06;22.73;48.29
67572;SHT31;54397;47.506;19.158;2022-07-26T01:49:31;22.69;48.59
67572;SHT31;54397;47.506;19.158;2022-07-26T01:52:52;22.63;48.77
67572;SHT31;54397;47.506;19.158;2022-07-26T01:56:14;22.60;48.91
67572;SHT31;54397;47.506;19.158;2022-07-26T01:59:36;22.67;49.02
67572;SHT31;54397;47.506;19.158;2022-07-26T02:02:57;22.70;48.96
67572;SHT31;54397;47.506;19.158;2022-07-26T02:06:22;22.60;49.42
67572;SHT31;54397;47.506;19.158;2022-07-26T02:09:43;22.33;50.00
67572;SHT31;54397;47.506;19.158;2022-07-26T02:16:58;22.18;50.04
67572;SHT31;54397;47.506;19.158;2022-07-26T02:20:27;21.94;50.16
67572;SHT31;54397;47.506;19.158;2022-07-26T02:23:49;21.94;49.86
67572;SHT31;54397;47.506;19.158;2022-07-26T02:27:10;22.12;49.64
67572;SHT31;54397;47.506;19.158;2022-07-26T02:30:32;22.11;49.43
67572;SHT31;54397;47.506;19.158;2022-07-26T02:33:56;22.23;49.18
67572;SHT31;54397;47.506;19.158;2022-07-26T02:37:18;22.33;48.72
67572;SHT31;54397;47.506;19.158;2022-07-26T02:40:40;22.40;48.24
67572;SHT31;54397;47.506;19.158;2022-07-26T02:44:05;22.52;48.64
67572;SHT31;54397;47.506;19.158;2022-07-26T02:47:27;22.64;49.22
67572;SHT31;54397;47.506;19.158;2022-07-26T02:50:53;22.71;48.91
67572;SHT31;54397;47.506;19.158;2022-07-26T02:54:17;22.56;49.33
67572;SHT31;54397;47.506;19.158;2022-07-26T02:57:38;22.60;49.14
67572;SHT31;54397;47.506;19.158;2022-07-26T03:01:07;22.69;48.65
67572;SHT31;54397;47.506;19.158;2022-07-26T03:04:28;22.88;48.53
67572;SHT31;54397;47.506;19.158;2022-07-26T03:07:50;22.80;48.85
67572;SHT31;54397;47.506;19.158;2022-07-26T03:11:14;22.66;49.44
67572;SHT31;54397;47.506;19.158;2022-07-26T03:14:38;22.63;49.55
67572;SHT31;54397;47.506;19.158;2022-07-26T03:18:02;22.67;49.45
67572;SHT31;54397;47.506;19.158;2022-07-26T03:21:24;22.80;49.42
67572;SHT31;54397;47.506;19.158;2022-07-26T03:24:48;22.90;49.19
67572;SHT31;54397;47.506;19.158;2022-07-26T03:28:12;22.67;50.01
67572;SHT31;54397;47.506;19.158;2022-07-26T03:31:41;22.63;50.56
67572;SHT31;54397;47.506;19.158;2022-07-26T03:35:03;22.63;50.73
67572;SHT31;54397;47.506;19.158;2022-07-26T03:38:33;22.55;51.34
67572;SHT31;54397;47.506;19.158;2022-07-26T03:41:55;22.57;51.07
67572;SHT31;54397;47.506;19.158;2022-07-26T03:45:24;22.61;51.16
67572;SHT31;54397;47.506;19.158;2022-07-26T03:48:47;22.64;51.55
67572;SHT31;54397;47.506;19.158;2022-07-26T03:52:16;22.71;51.36
67572;SHT31;54397;47.506;19.158;2022-07-26T03:55:40;22.69;51.49
67572;SHT31;54397;47.506;19.158;2022-07-26T03:59:20;22.83;51.68
67572;SHT31;54397;47.506;19.158;2022-07-26T04:02:44;22.71;51.79
67572;SHT31;54397;47.506;19.158;2022-07-26T04:06:07;22.57;52.37
67572;SHT31;54397;47.506;19.158;2022-07-26T04:09:31;22.60;52.46
67572;SHT31;54397;47.506;19.158;2022-07-26T04:12:53;22.57;52.64
67572;SHT31;54397;47.506;19.158;2022-07-26T04:16:15;22.66;52.28
67572;SHT31;54397;47.506;19.158;2022-07-26T04:19:41;22.70;52.11
67572;SHT31;54397;47.506;19.158;2022-07-26T04:23:04;22.83;51.75
67572;SHT31;54397;47.506;19.158;2022-07-26T04:26:31;22.97;51.71
67572;SHT31;54397;47.506;19.158;2022-07-26T04:29:56;23.08;51.64
67572;SHT31;54397;47.506;19.158;2022-07-26T04:33:17;23.08;50.88
67572;SHT31;54397;47.506;19.158;2022-07-26T04:36:39;22.88;51.67
67572;SHT31;54397;47.506;19.158;2022-07-26T04:40:03;22.96;51.78
67572;SHT31;54397;47.506;19.158;2022-07-26T04:43:25;23.01;51.99
67572;SHT31;54397;47.506;19.158;2022-07-26T04:46:48;23.15;51.59
67572;SHT31;54397;47.506;19.158;2022-07-26T04:50:10;23.11;52.39
67572;SHT31;54397;47.506;19.158;2022-07-26T04:53:33;23.66;51.45
67572;SHT31;54397;47.506;19.158;2022-07-26T04:56:56;24.38;48.08
67572;SHT31;54397;47.506;19.158;2022-07-26T05:00:22;24.21;45.96
67572;SHT31;54397;47.506;19.158;2022-07-26T05:03:46;24.04;48.88
67572;SHT31;54397;47.506;19.158;2022-07-26T05:07:10;24.25;47.25
67572;SHT31;54397;47.506;19.158;2022-07-26T05:10:35;24.57;44.93
67572;SHT31;54397;47.506;19.158;2022-07-26T05:13:59;24.80;46.31
67572;SHT31;54397;47.506;19.158;2022-07-26T05:17:21;25.03;47.20
67572;SHT31;54397;47.506;19.158;2022-07-26T05:20:46;25.20;45.96
67572;SHT31;54397;47.506;19.158;2022-07-26T05:24:12;25.27;45.55
67572;SHT31;54397;47.506;19.158;2022-07-26T05:27:38;25.64;44.85
67572;SHT31;54397;47.506;19.158;2022-07-26T05:31:04;25.81;44.46
67572;SHT31;54397;47.506;19.158;2022-07-26T05:34:26;26.03;43.98
67572;SHT31;54397;47.506;19.158;2022-07-26T05:37:50;26.23;43.84
67572;SHT31;54397;47.506;19.158;2022-07-26T05:41:11;26.39;42.50
67572;SHT31;54397;47.506;19.158;2022-07-26T05:44:33;26.16;41.78
67572;SHT31;54397;47.506;19.158;2022-07-26T05:48:05;26.22;43.05
67572;SHT31;54397;47.506;19.158;2022-07-26T05:51:27;26.41;43.14
67572;SHT31;54397;47.506;19.158;2022-07-26T05:54:50;26.43;41.81
67572;SHT31;54397;47.506;19.158;2022-07-26T05:58:12;26.26;41.66
67572;SHT31;54397;47.506;19.158;2022-07-26T06:01:34;26.54;43.09
67572;SHT31;54397;47.506;19.158;2022-07-26T06:04:56;26.90;41.37
67572;SHT31;54397;47.506;19.158;2022-07-26T06:08:21;27.21;42.19
67572;SHT31;54397;47.506;19.158;2022-07-26T06:11:44;27.12;39.41
67572;SHT31;54397;47.506;19.158;2022-07-26T06:15:06;27.25;41.55
67572;SHT31;54397;47.506;19.158;2022-07-26T06:18:36;27.14;40.22
67572;SHT31;54397;47.506;19.158;2022-07-26T06:22:00;27.35;42.18
67572;SHT31;54397;47.506;19.158;2022-07-26T06:25:22;27.70;42.36
67572;SHT31;54397;47.506;19.158;2022-07-26T06:28:46;27.96;43.20
67572;SHT31;54397;47.506;19.158;2022-07-26T06:32:10;28.14;43.67
67572;SHT31;54397;47.506;19.158;2022-07-26T06:35:32;28.32;43.95
67572;SHT31;54397;47.506;19.158;2022-07-26T06:38:58;28.22;45.31
67572;SHT31;54397;47.506;19.158;2022-07-26T06:42:20;28.22;45.61
67572;SHT31;54397;47.506;19.158;2022-07-26T06:45:44;28.28;46.18
67572;SHT31;54397;47.506;19.158;2022-07-26T06:49:05;28.34;46.33
67572;SHT31;54397;47.506;19.158;2022-07-26T06:52:28;28.22;47.04
67572;SHT31;54397;47.506;19.158;2022-07-26T06:55:52;28.29;46.69
67572;SHT31;54397;47.506;19.158;2022-07-26T06:59:16;28.58;46.42
67572;SHT31;54397;47.506;19.158;2022-07-26T07:02:38;28.79;46.17
67572;SHT31;54397;47.506;19.158;2022-07-26T07:06:02;28.97;45.93
67572;SHT31;54397;47.506;19.158;2022-07-26T07:09:24;29.17;45.61
67572;SHT31;54397;47.506;19.158;2022-07-26T07:12:45;29.08;46.41
67572;SHT31;54397;47.506;19.158;2022-07-26T07:16:07;29.07;46.52
67572;SHT31;54397;47.506;19.158;2022-07-26T07:19:36;29.07;46.50
67572;SHT31;54397;47.506;19.158;2022-07-26T07:22:58;29.39;45.55
67572;SHT31;54397;47.506;19.158;2022-07-26T07:26:20;29.62;43.66
67572;SHT31;54397;47.506;19.158;2022-07-26T07:29:47;29.73;43.64
67572;SHT31;54397;47.506;19.158;2022-07-26T07:33:08;29.62;43.78
67572;SHT31;54397;47.506;19.158;2022-07-26T07:36:43;29.83;43.73
67572;SHT31;54397;47.506;19.158;2022-07-26T07:40:08;29.80;43.51
67572;SHT31;54397;47.506;19.158;2022-07-26T07:43:37;29.93;43.51
67572;SHT31;54397;47.506;19.158;2022-07-26T07:46:59;30.34;43.05
67572;SHT31;54397;47.506;19.158;2022-07-26T07:50:23;30.54;42.28
67572;SHT31;54397;47.506;19.158;2022-07-26T07:53:48;30.57;42.36
67572;SHT31;54397;47.506;19.158;2022-07-26T07:57:20;30.75;42.48
67572;SHT31;54397;47.506;19.158;2022-07-26T08:00:47;30.82;42.08
67572;SHT31;54397;47.506;19.158;2022-07-26T08:04:09;30.43;43.29
67572;SHT31;54397;47.506;19.158;2022-07-26T08:07:33;30.03;44.33
67572;SHT31;54397;47.506;19.158;2022-07-26T08:10:56;30.06;44.58
67572;SHT31;54397;47.506;19.158;2022-07-26T08:14:18;29.93;45.11
67572;SHT31;54397;47.506;19.158;2022-07-26T08:17:40;29.95;45.07
67572;SHT31;54397;47.506;19.158;2022-07-26T08:21:02;29.92;45.49
67572;SHT31;54397;47.506;19.158;2022-07-26T08:24:26;29.90;45.35
67572;SHT31;54397;47.506;19.158;2022-07-26T08:27:48;29.90;46.36
67572;SHT31;54397;47.506;19.158;2022-07-26T08:31:24;29.66;47.18
67572;SHT31;54397;47.506;19.158;2022-07-26T08:34:46;29.25;48.82
67572;SHT31;54397;47.506;19.158;2022-07-26T08:38:07;29.44;48.30
67572;SHT31;54397;47.506;19.158;2022-07-26T08:41:29;29.90;47.76
67572;SHT31;54397;47.506;19.158;2022-07-26T08:44:51;29.80;46.54
67572;SHT31;54397;47.506;19.158;2022-07-26T08:48:15;30.06;45.85
67572;SHT31;54397;47.506;19.158;2022-07-26T08:51:40;30.17;46.76
67572;SHT31;54397;47.506;19.158;2022-07-26T08:55:03;30.16;47.39
67572;SHT31;54397;47.506;19.158;2022-07-26T08:58:33;30.44;47.39
67572;SHT31;54397;47.506;19.158;2022-07-26T09:01:59;30.79;46.61
67572;SHT31;54397;47.506;19.158;2022-07-26T09:05:34;30.51;45.15
67572;SHT31;54397;47.506;19.158;2022-07-26T09:09:09;30.92;45.22
67572;SHT31;54397;47.506;19.158;2022-07-26T09:12:33;31.32;43.34
67572;SHT31;54397;47.506;19.158;2022-07-26T09:16:09;31.11;43.76
67572;SHT31;54397;47.506;19.158;2022-07-26T09:19:33;30.96;44.18
67572;SHT31;54397;47.506;19.158;2022-07-26T09:23:09;30.31;44.80
67572;SHT31;54397;47.506;19.158;2022-07-26T09:26:32;29.93;45.88
67572;SHT31;54397;47.506;19.158;2022-07-26T09:29:56;29.69;47.09
67572;SHT31;54397;47.506;19.158;2022-07-26T09:33:27;29.51;47.00
67572;SHT31;54397;47.506;19.158;2022-07-26T09:37:05;29.39;47.26
67572;SHT31;54397;47.506;19.158;2022-07-26T09:40:33;29.15;47.23
67572;SHT31;54397;47.506;19.158;2022-07-26T09:44:03;29.02;47.60
67572;SHT31;54397;47.506;19.158;2022-07-26T09:47:40;28.60;48.14
67572;SHT31;54397;47.506;19.158;2022-07-26T09:51:07;28.39;48.62
67572;SHT31;54397;47.506;19.158;2022-07-26T09:54:33;28.44;48.44
67572;SHT31;54397;47.506;19.158;2022-07-26T09:57:58;28.27;48.74
67572;SHT31;54397;47.506;19.158;2022-07-26T10:01:23;28.24;49.07
67572;SHT31;54397;47.506;19.158;2022-07-26T10:04:45;27.96;50.96
67572;SHT31;54397;47.506;19.158;2022-07-26T10:08:10;27.80;53.84
67572;SHT31;54397;47.506;19.158;2022-07-26T10:11:41;27.54;55.46
67572;SHT31;54397;47.506;19.158;2022-07-26T10:15:06;26.95;59.57
67572;SHT31;54397;47.506;19.158;2022-07-26T10:18:44;26.44;61.67
67572;SHT31;54397;47.506;19.158;2022-07-26T10:25:59;26.09;66.36
67572;SHT31;54397;47.506;19.158;2022-07-26T10:29:25;25.92;68.03
67572;SHT31;54397;47.506;19.158;2022-07-26T10:36:35;25.64;69.37
67572;SHT31;54397;47.506;19.158;2022-07-26T10:40:20;25.16;72.38
67572;SHT31;54397;47.506;19.158;2022-07-26T10:44:12;25.50;70.24
67572;SHT31;54397;47.506;19.158;2022-07-26T10:47:34;25.70;69.53
67572;SHT31;54397;47.506;19.158;2022-07-26T10:50:56;25.17;71.53
67572;SHT31;54397;47.506;19.158;2022-07-26T10:54:17;25.34;70.29
67572;SHT31;54397;47.506;19.158;2022-07-26T10:57:41;25.54;70.93
67572;SHT31;54397;47.506;19.158;2022-07-26T11:01:05;25.60;69.72
67572;SHT31;54397;47.506;19.158;2022-07-26T11:04:35;25.74;70.69
67572;SHT31;54397;47.506;19.158;2022-07-26T11:08:00;25.72;71.72
67572;SHT31;54397;47.506;19.158;2022-07-26T11:11:27;25.61;71.60
67572;SHT31;54397;47.506;19.158;2022-07-26T11:14:56;25.47;71.98
67572;SHT31;54397;47.506;19.158;2022-07-26T11:21:43;24.92;72.68
67572;SHT31;54397;47.506;19.158;2022-07-26T11:25:08;24.93;72.95
67572;SHT31;54397;47.506;19.158;2022-07-26T11:29:00;24.92;72.87
67572;SHT31;54397;47.506;19.158;2022-07-26T11:32:27;24.83;73.33
67572;SHT31;54397;47.506;19.158;2022-07-26T11:35:49;25.06;72.20
67572;SHT31;54397;47.506;19.158;2022-07-26T11:39:19;25.34;71.29
67572;SHT31;54397;47.506;19.158;2022-07-26T11:42:43;25.33;71.16
67572;SHT31;54397;47.506;19.158;2022-07-26T11:46:05;25.47;70.95
67572;SHT31;54397;47.506;19.158;2022-07-26T11:49:29;25.58;70.27
67572;SHT31;54397;47.506;19.158;2022-07-26T11:53:22;25.37;69.77
67572;SHT31;54397;47.506;19.158;2022-07-26T11:56:51;25.31;69.54
67572;SHT31;54397;47.506;19.158;2022-07-26T12:00:14;25.19;69.92
67572;SHT31;54397;47.506;19.158;2022-07-26T12:03:37;25.05;70.63
67572;SHT31;54397;47.506;19.158;2022-07-26T12:07:07;24.89;70.88
67572;SHT31;54397;47.506;19.158;2022-07-26T12:10:29;25.06;70.64
67572;SHT31;54397;47.506;19.158;2022-07-26T12:14:04;25.40;69.12
67572;SHT31;54397;47.506;19.158;2022-07-26T12:17:29;25.71;67.49
67572;SHT31;54397;47.506;19.158;2022-07-26T12:21:06;25.72;69.03
67572;SHT31;54397;47.506;19.158;2022-07-26T12:24:38;25.98;67.81
67572;SHT31;54397;47.506;19.158;2022-07-26T12:28:02;26.25;66.19
67572;SHT31;54397;47.506;19.158;2022-07-26T12:31:31;25.88;67.58
67572;SHT31;54397;47.506;19.158;2022-07-26T12:35:14;26.20;66.02
67572;SHT31;54397;47.506;19.158;2022-07-26T12:38:43;26.15;66.39
67572;SHT31;54397;47.506;19.158;2022-07-26T12:42:26;26.41;65.72
67572;SHT31;54397;47.506;19.158;2022-07-26T12:45:58;26.76;63.02
67572;SHT31;54397;47.506;19.158;2022-07-26T12:49:23;26.41;63.48
67572;SHT31;54397;47.506;19.158;2022-07-26T12:52:45;25.93;64.95
67572;SHT31;54397;47.506;19.158;2022-07-26T12:56:07;26.12;64.75
67572;SHT31;54397;47.506;19.158;2022-07-26T12:59:28;26.19;64.43
67572;SHT31;54397;47.506;19.158;2022-07-26T13:02:51;25.95;64.60
67572;SHT31;54397;47.506;19.158;2022-07-26T13:06:15;25.84;65.50
67572;SHT31;54397;47.506;19.158;2022-07-26T13:09:41;25.99;65.20
67572;SHT31;54397;47.506;19.158;2022-07-26T13:13:03;26.12;64.20
67572;SHT31;54397;47.506;19.158;2022-07-26T13:16:25;26.40;63.35
67572;SHT31;54397;47.506;19.158;2022-07-26T13:19:47;26.39;64.16
67572;SHT31;54397;47.506;19.158;2022-07-26T13:23:11;26.47;64.38
67572;SHT31;54397;47.506;19.158;2022-07-26T13:26:41;26.44;64.05
67572;SHT31;54397;47.506;19.158;2022-07-26T13:30:04;26.33;65.15
67572;SHT31;54397;47.506;19.158;2022-07-26T13:33:25;26.70;64.12
67572;SHT31;54397;47.506;19.158;2022-07-26T13:36:51;26.20;63.52
67572;SHT31;54397;47.506;19.158;2022-07-26T13:40:15;25.88;64.46
67572;SHT31;54397;47.506;19.158;2022-07-26T13:43:37;25.89;64.84
67572;SHT31;54397;47.506;19.158;2022-07-26T13:46:59;25.89;64.95
67572;SHT31;54397;47.506;19.158;2022-07-26T13:50:28;25.96;64.50
67572;SHT31;54397;47.506;19.158;2022-07-26T13:53:50;26.10;64.24
67572;SHT31;54397;47.506;19.158;2022-07-26T13:57:16;26.18;63.92
67572;SHT31;54397;47.506;19.158;2022-07-26T14:00:41;26.16;63.75
67572;SHT31;54397;47.506;19.158;2022-07-26T14:04:05;26.35;62.95
67572;SHT31;54397;47.506;19.158;2022-07-26T14:07:27;26.57;62.28
67572;SHT31;54397;47.506;19.158;2022-07-26T14:10:48;26.57;62.99
67572;SHT31;54397;47.506;19.158;2022-07-26T14:14:14;26.68;62.62
67572;SHT31;54397;47.506;19.158;2022-07-26T14:17:36;26.43;63.44
67572;SHT31;54397;47.506;19.158;2022-07-26T14:21:01;26.02;64.64
67572;SHT31;54397;47.506;19.158;2022-07-26T14:24:32;26.02;64.55
67572;SHT31;54397;47.506;19.158;2022-07-26T14:27:54;25.95;63.80
67572;SHT31;54397;47.506;19.158;2022-07-26T14:31:18;26.16;63.69
67572;SHT31;54397;47.506;19.158;2022-07-26T14:34:41;26.40;62.48
67572;SHT31;54397;47.506;19.158;2022-07-26T14:38:05;26.44;62.62
67572;SHT31;54397;47.506;19.158;2022-07-26T14:41:27;26.57;62.08
67572;SHT31;54397;47.506;19.158;2022-07-26T14:44:50;26.51;62.56
67572;SHT31;54397;47.506;19.158;2022-07-26T14:48:16;26.12;63.41
67572;SHT31;54397;47.506;19.158;2022-07-26T14:52:00;26.01;64.64
67572;SHT31;54397;47.506;19.158;2022-07-26T14:55:22;26.20;63.62
67572;SHT31;54397;47.506;19.158;2022-07-26T14:58:46;26.40;63.49
67572;SHT31;54397;47.506;19.158;2022-07-26T15:02:12;26.51;62.99
67572;SHT31;54397;47.506;19.158;2022-07-26T15:05:34;26.61;62.58
67572;SHT31;54397;47.506;19.158;2022-07-26T15:08:55;26.40;63.31
67572;SHT31;54397;47.506;19.158;2022-07-26T15:12:17;26.32;63.60
67572;SHT31;54397;47.506;19.158;2022-07-26T15:15:41;26.49;62.79
67572;SHT31;54397;47.506;19.158;2022-07-26T15:19:04;26.68;62.21
67572;SHT31;54397;47.506;19.158;2022-07-26T15:22:28;26.71;61.87
67572;SHT31;54397;47.506;19.158;2022-07-26T15:25:54;26.73;61.84
67572;SHT31;54397;47.506;19.158;2022-07-26T15:29:15;26.61;62.12
67572;SHT31;54397;47.506;19.158;2022-07-26T15:32:37;26.67;62.01
67572;SHT31;54397;47.506;19.158;2022-07-26T15:35:59;26.73;61.93
67572;SHT31;54397;47.506;19.158;2022-07-26T15:39:28;26.60;62.32
67572;SHT31;54397;47.506;19.158;2022-07-26T15:42:50;26.67;62.60
67572;SHT31;54397;47.506;19.158;2022-07-26T15:46:13;26.58;62.86
67572;SHT31;54397;47.506;19.158;2022-07-26T15:49:36;26.78;62.06
67572;SHT31;54397;47.506;19.158;2022-07-26T15:53:03;26.92;61.19
67572;SHT31;54397;47.506;19.158;2022-07-26T15:56:24;27.05;61.18
67572;SHT31;54397;47.506;19.158;2022-07-26T15:59:49;26.98;60.89
67572;SHT31;54397;47.506;19.158;2022-07-26T16:03:10;27.05;60.63
67572;SHT31;54397;47.506;19.158;2022-07-26T16:06:33;27.02;60.41
67572;SHT31;54397;47.506;19.158;2022-07-26T16:09:54;26.73;60.86
67572;SHT31;54397;47.506;19.158;2022-07-26T16:13:18;26.67;61.17
67572;SHT31;54397;47.506;19.158;2022-07-26T16:16:40;26.71;60.82
67572;SHT31;54397;47.506;19.158;2022-07-26T16:20:05;26.74;60.58
67572;SHT31;54397;47.506;19.158;2022-07-26T16:23:26;26.76;60.58
67572;SHT31;54397;47.506;19.158;2022-07-26T16:26:48;26.76;60.33
67572;SHT31;54397;47.506;19.158;2022-07-26T16:30:13;26.84;60.13
67572;SHT31;54397;47.506;19.158;2022-07-26T16:33:35;26.88;59.98
67572;SHT31;54397;47.506;19.158;2022-07-26T16:36:59;26.84;59.46
67572;SHT31;54397;47.506;19.158;2022-07-26T16:40:23;26.73;59.75
67572;SHT31;54397;47.506;19.158;2022-07-26T16:43:45;26.65;59.55
67572;SHT31;54397;47.506;19.158;2022-07-26T16:47:06;26.53;59.92
67572;SHT31;54397;47.506;19.158;2022-07-26T16:50:28;26.58;59.18
67572;SHT31;54397;47.506;19.158;2022-07-26T16:53:50;26.63;59.32
67572;SHT31;54397;47.506;19.158;2022-07-26T16:57:15;26.67;58.99
67572;SHT31;54397;47.506;19.158;2022-07-26T17:00:37;26.67;58.90
67572;SHT31;54397;47.506;19.158;2022-07-26T17:04:01;26.61;58.97
67572;SHT31;54397;47.506;19.158;2022-07-26T17:07:22;26.71;59.15
67572;SHT31;54397;47.506;19.158;2022-07-26T17:10:46;26.71;58.92
67572;SHT31;54397;47.506;19.158;2022-07-26T17:14:08;26.83;58.41
67572;SHT31;54397;47.506;19.158;2022-07-26T17:17:30;26.63;56.80
67572;SHT31;54397;47.506;19.158;2022-07-26T17:20:52;26.53;56.38
67572;SHT31;54397;47.506;19.158;2022-07-26T17:24:19;26.39;56.92
67572;SHT31;54397;47.506;19.158;2022-07-26T17:27:44;26.43;56.56
67572;SHT31;54397;47.506;19.158;2022-07-26T17:31:05;26.40;56.67
67572;SHT31;54397;47.506;19.158;2022-07-26T17:34:29;26.36;55.57
67572;SHT31;54397;47.506;19.158;2022-07-26T17:37:51;26.35;56.56
67572;SHT31;54397;47.506;19.158;2022-07-26T17:41:22;26.32;56.55
67572;SHT31;54397;47.506;19.158;2022-07-26T17:44:53;26.22;57.03
67572;SHT31;54397;47.506;19.158;2022-07-26T17:48:17;26.15;57.52
67572;SHT31;54397;47.506;19.158;2022-07-26T17:51:44;26.08;57.78
67572;SHT31;54397;47.506;19.158;2022-07-26T17:55:08;26.16;57.87
67572;SHT31;54397;47.506;19.158;2022-07-26T17:58:37;26.02;57.60
67572;SHT31;54397;47.506;19.158;2022-07-26T18:01:58;26.02;57.75
67572;SHT31;54397;47.506;19.158;2022-07-26T18:05:20;26.01;57.91
67572;SHT31;54397;47.506;19.158;2022-07-26T18:08:42;26.16;57.31
67572;SHT31;54397;47.506;19.158;2022-07-26T18:12:04;26.15;57.42
67572;SHT31;54397;47.506;19.158;2022-07-26T18:15:26;26.05;57.30
67572;SHT31;54397;47.506;19.158;2022-07-26T18:18:47;26.16;57.55
67572;SHT31;54397;47.506;19.158;2022-07-26T18:22:12;26.12;57.39
67572;SHT31;54397;47.506;19.158;2022-07-26T18:25:33;26.06;57.92
67572;SHT31;54397;47.506;19.158;2022-07-26T18:28:57;26.05;58.08
67572;SHT31;54397;47.506;19.158;2022-07-26T18:32:19;26.02;58.03
67572;SHT31;54397;47.506;19.158;2022-07-26T18:35:44;25.92;58.63
67572;SHT31;54397;47.506;19.158;2022-07-26T18:39:05;25.65;59.27
67572;SHT31;54397;47.506;19.158;2022-07-26T18:42:27;25.80;59.64
67572;SHT31;54397;47.506;19.158;2022-07-26T18:45:51;25.85;59.12
67572;SHT31;54397;47.506;19.158;2022-07-26T18:49:16;25.89;59.78
67572;SHT31;54397;47.506;19.158;2022-07-26T18:52:41;25.78;60.01
67572;SHT31;54397;47.506;19.158;2022-07-26T18:56:05;25.82;60.07
67572;SHT31;54397;47.506;19.158;2022-07-26T18:59:27;25.92;60.20
67572;SHT31;54397;47.506;19.158;2022-07-26T19:02:52;25.98;60.06
67572;SHT31;54397;47.506;19.158;2022-07-26T19:06:17;25.96;59.94
67572;SHT31;54397;47.506;19.158;2022-07-26T19:09:39;25.92;60.27
67572;SHT31;54397;47.506;19.158;2022-07-26T19:13:01;25.95;60.36
67572;SHT31;54397;47.506;19.158;2022-07-26T19:16:25;25.92;61.06
67572;SHT31;54397;47.506;19.158;2022-07-26T19:19:47;25.81;60.64
67572;SHT31;54397;47.506;19.158;2022-07-26T19:23:14;25.82;61.33
67572;SHT31;54397;47.506;19.158;2022-07-26T19:26:42;25.75;61.41
67572;SHT31;54397;47.506;19.158;2022-07-26T19:30:08;25.80;60.95
67572;SHT31;54397;47.506;19.158;2022-07-26T19:33:33;25.67;61.18
67572;SHT31;54397;47.506;19.158;2022-07-26T19:36:55;25.53;61.42
67572;SHT31;54397;47.506;19.158;2022-07-26T19:40:23;25.41;61.65
67572;SHT31;54397;47.506;19.158;2022-07-26T19:43:47;25.23;61.97
67572;SHT31;54397;47.506;19.158;2022-07-26T19:47:09;25.10;62.18
67572;SHT31;54397;47.506;19.158;2022-07-26T19:50:31;25.00;62.63
67572;SHT31;54397;47.506;19.158;2022-07-26T19:53:52;24.67;63.43
67572;SHT31;54397;47.506;19.158;2022-07-26T19:57:16;24.67;63.46
67572;SHT31;54397;47.506;19.158;2022-07-26T20:00:40;24.58;63.14
67572;SHT31;54397;47.506;19.158;2022-07-26T20:04:01;24.58;63.36
67572;SHT31;54397;47.506;19.158;2022-07-26T20:07:25;24.41;63.50
67572;SHT31;54397;47.506;19.158;2022-07-26T20:10:50;24.47;63.25
67572;SHT31;54397;47.506;19.158;2022-07-26T20:14:12;24.34;63.19
67572;SHT31;54397;47.506;19.158;2022-07-26T20:17:34;24.42;62.87
67572;SHT31;54397;47.506;19.158;2022-07-26T20:21:00;24.48;63.11
67572;SHT31;54397;47.506;19.158;2022-07-26T20:24:21;24.52;62.37
67572;SHT31;54397;47.506;19.158;2022-07-26T20:27:46;24.52;62.57
67572;SHT31;54397;47.506;19.158;2022-07-26T20:31:08;24.32;63.11
67572;SHT31;54397;47.506;19.158;2022-07-26T20:34:30;24.13;63.76
67572;SHT31;54397;47.506;19.158;2022-07-26T20:37:52;24.37;62.66
67572;SHT31;54397;47.506;19.158;2022-07-26T20:41:13;24.73;62.17
67572;SHT31;54397;47.506;19.158;2022-07-26T20:44:37;24.99;61.24
67572;SHT31;54397;47.506;19.158;2022-07-26T20:48:01;25.00;60.82
67572;SHT31;54397;47.506;19.158;2022-07-26T20:51:27;25.06;60.74
67572;SHT31;54397;47.506;19.158;2022-07-26T20:54:52;25.23;60.39
67572;SHT31;54397;47.506;19.158;2022-07-26T20:58:13;25.35;60.40
67572;SHT31;54397;47.506;19.158;2022-07-26T21:01:40;25.31;59.51
67572;SHT31;54397;47.506;19.158;2022-07-26T21:05:05;25.38;59.64
67572;SHT31;54397;47.506;19.158;2022-07-26T21:08:36;25.27;60.11
67572;SHT31;54397;47.506;19.158;2022-07-26T21:12:01;25.24;59.70
67572;SHT31;54397;47.506;19.158;2022-07-26T21:15:23;24.92;59.89
67572;SHT31;54397;47.506;19.158;2022-07-26T21:18:49;24.78;60.90
67572;SHT31;54397;47.506;19.158;2022-07-26T21:22:14;24.52;60.86
67572;SHT31;54397;47.506;19.158;2022-07-26T21:25:36;24.64;61.24